Braintree, Massachusetts
Current Conditions -  °F | °C
As of 2:53 PM on Friday 21 Nov 2014 (Local Time) from KOWD Reporting Station
Few Clouds Few Clouds  
Wind Chill: 24°   Ceiling: Unl
Heat Index: 34°   Visibility: 10mi
Dew Point:   Wind: 15mph
Humidity: 34%   Direction: 300°WNW
Pressure: 30.2"   Gusts: 25mph
Location:  42.21°N, 71°W
Report Text: KOWD 211953Z 30013G22KT 10SM FEW060 01/M13 A3020 RMK AO2 SLP228 T00111133
Loading
Personal Weather Stations






























Interactive Weather Map New forecast layout! Learn more

10-Day Weather Forecast

Advertisements
Track Severe Weather on mobile